Time;durP1;ratioP1;P1;durP2;ratioP2;P2;SDS_P1;SDS_P2;PMS_P1;PMS_P2;Temp;Humidity;BMP_temperature;BMP_pressure;BME280_temperature;BME280_humidity;BME280_pressure;Samples;Min_cycle;Max_cycle;Signal;HPM_P1;HPM_P2
2022/04/27 00:01:26;;;;;;;14.03;9.43;;;8.40;99.90;;;;;;5046821;28;20594;-74
2022/04/27 00:03:54;;;;;;;16.03;9.03;;;8.40;99.90;;;;;;5044242;28;20562;-75
2022/04/27 00:06:23;;;;;;;13.50;9.40;;;8.40;99.90;;;;;;5047463;28;20223;-69
2022/04/27 00:08:51;;;;;;;17.07;9.20;;;8.30;99.90;;;;;;5046814;28;20223;-75
2022/04/27 00:11:20;;;;;;;12.80;9.30;;;8.30;99.90;;;;;;5042324;28;20662;-74
2022/04/27 00:13:49;;;;;;;13.67;9.73;;;8.30;99.90;;;;;;5047992;28;20728;-74
2022/04/27 00:16:19;;;;;;;16.57;9.20;;;8.20;99.90;;;;;;5045983;28;20283;-75
2022/04/27 00:18:47;;;;;;;14.67;9.30;;;8.20;99.90;;;;;;5044584;28;20815;-75
2022/04/27 00:21:15;;;;;;;11.60;9.40;;;8.20;99.90;;;;;;5043136;28;20232;-73
2022/04/27 00:23:44;;;;;;;16.67;10.33;;;8.20;99.90;;;;;;5043355;28;20251;-74
2022/04/27 00:26:13;;;;;;;12.70;9.37;;;8.20;99.90;;;;;;5047107;28;20284;-75
2022/04/27 00:28:42;;;;;;;16.67;9.57;;;8.20;99.90;;;;;;5047402;28;20395;-75
2022/04/27 00:31:10;;;;;;;15.13;10.13;;;8.20;99.90;;;;;;5044935;28;20199;-74
2022/04/27 00:33:40;;;;;;;12.83;9.73;;;8.20;99.90;;;;;;5046261;28;20208;-74
2022/04/27 00:36:09;;;;;;;17.73;10.60;;;8.20;99.90;;;;;;5044454;28;20193;-73
2022/04/27 00:38:37;;;;;;;13.77;10.30;;;8.20;99.90;;;;;;5039462;28;20208;-74
2022/04/27 00:41:06;;;;;;;16.60;10.43;;;8.10;99.90;;;;;;5041449;28;20270;-75
2022/04/27 00:43:42;;;;;;;17.73;9.90;;;8.10;99.90;;;;;;5042510;28;20200;-74
2022/04/27 00:46:11;;;;;;;12.37;9.57;;;8.10;99.90;;;;;;5043196;28;20207;-75
2022/04/27 00:48:41;;;;;;;15.50;10.33;;;8.00;99.90;;;;;;5046216;28;20200;-75
2022/04/27 00:51:13;;;;;;;13.67;9.80;;;8.00;99.90;;;;;;5044116;28;20193;-73
2022/04/27 00:53:42;;;;;;;15.13;10.60;;;8.10;99.90;;;;;;5045229;28;20192;-75
2022/04/27 00:56:12;;;;;;;17.73;10.83;;;8.10;99.90;;;;;;5044340;28;20196;-75
2022/04/27 00:58:45;;;;;;;19.63;10.37;;;8.00;99.90;;;;;;5045774;28;20207;-75
2022/04/27 01:01:20;;;;;;;14.47;10.63;;;8.00;99.90;;;;;;5040910;28;20215;-74
2022/04/27 01:03:50;;;;;;;13.83;10.40;;;8.00;99.90;;;;;;5041373;28;20254;-75
2022/04/27 01:06:19;;;;;;;20.37;11.20;;;8.10;99.90;;;;;;5044397;28;20205;-75
2022/04/27 01:08:48;;;;;;;16.77;10.67;;;8.10;99.90;;;;;;5042905;28;20239;-74
2022/04/27 01:11:16;;;;;;;14.47;10.60;;;8.10;99.90;;;;;;5041228;28;20189;-75
2022/04/27 01:13:45;;;;;;;17.77;11.50;;;8.00;99.90;;;;;;5045018;28;20202;-74
2022/04/27 01:16:14;;;;;;;16.83;12.23;;;8.00;99.90;;;;;;5046091;28;20188;-74
2022/04/27 01:18:42;;;;;;;19.20;12.23;;;8.00;99.90;;;;;;5044764;28;20647;-74
2022/04/27 01:21:12;;;;;;;15.33;11.53;;;7.90;99.90;;;;;;5040211;28;20213;-74
2022/04/27 01:23:40;;;;;;;18.40;11.67;;;7.90;99.90;;;;;;5041675;28;20220;-74
2022/04/27 01:26:09;;;;;;;18.67;12.27;;;7.90;99.90;;;;;;5043090;28;20197;-74
2022/04/27 01:28:39;;;;;;;20.27;12.10;;;7.80;99.90;;;;;;5042272;28;20208;-74
2022/04/27 01:31:09;;;;;;;23.07;12.10;;;7.80;99.90;;;;;;5041469;28;20282;-74
2022/04/27 01:33:38;;;;;;;20.07;12.90;;;7.70;99.90;;;;;;5042873;28;20235;-74
2022/04/27 01:36:08;;;;;;;22.00;12.50;;;7.80;99.90;;;;;;5043608;28;20207;-74
2022/04/27 01:38:39;;;;;;;21.43;12.63;;;7.70;99.90;;;;;;5027104;28;20224;-74
2022/04/27 01:41:08;;;;;;;18.37;12.67;;;7.70;99.90;;;;;;5042775;28;20220;-74
2022/04/27 01:43:37;;;;;;;13.73;11.43;;;7.70;99.90;;;;;;5042638;28;20279;-74
2022/04/27 01:46:06;;;;;;;23.43;13.23;;;7.70;99.90;;;;;;5044707;28;20208;-74
2022/04/27 01:48:35;;;;;;;21.70;13.30;;;7.70;99.90;;;;;;5044882;28;20204;-74
2022/04/27 01:51:03;;;;;;;18.50;12.50;;;7.60;99.90;;;;;;5041783;28;20188;-74
2022/04/27 01:56:16;;;;;;;18.43;12.80;;;7.50;99.90;;;;;;5031332;28;20295;-74
2022/04/27 01:58:45;;;;;;;21.90;13.63;;;7.50;99.90;;;;;;5042612;28;20200;-74
2022/04/27 02:01:14;;;;;;;23.60;13.53;;;7.40;99.90;;;;;;5042715;28;20247;-74
2022/04/27 02:03:43;;;;;;;24.20;13.57;;;7.40;99.90;;;;;;5043199;28;20197;-74
2022/04/27 02:06:11;;;;;;;22.23;14.20;;;7.40;99.90;;;;;;5045242;28;20204;-74
2022/04/27 02:08:40;;;;;;;22.27;13.77;;;7.40;99.90;;;;;;5045140;28;20196;-74
2022/04/27 02:11:08;;;;;;;22.80;13.70;;;7.30;99.90;;;;;;5040609;28;20204;-75
2022/04/27 02:13:38;;;;;;;20.73;13.40;;;7.30;99.90;;;;;;5042848;28;20197;-73
2022/04/27 02:16:06;;;;;;;22.40;14.23;;;7.20;99.90;;;;;;5044843;28;20200;-74
2022/04/27 02:18:35;;;;;;;22.40;13.13;;;7.20;99.90;;;;;;5039663;28;20528;-74
2022/04/27 02:21:04;;;;;;;24.93;13.87;;;7.10;99.90;;;;;;5044454;28;20228;-74
2022/04/27 02:23:32;;;;;;;20.03;13.87;;;7.00;99.90;;;;;;5040546;28;20680;-74
2022/04/27 02:26:02;;;;;;;18.80;13.53;;;7.00;99.90;;;;;;5042591;28;20299;-74
2022/04/27 02:28:30;;;;;;;28.33;14.27;;;6.90;99.90;;;;;;5046647;28;20207;-74
2022/04/27 02:31:00;;;;;;;20.87;14.30;;;6.90;99.90;;;;;;5045908;28;20287;-74
2022/04/27 02:33:30;;;;;;;21.20;14.33;;;6.80;99.90;;;;;;5040925;28;20550;-74
2022/04/27 02:35:59;;;;;;;24.73;13.77;;;6.70;99.90;;;;;;5048135;28;20201;-74
2022/04/27 02:38:28;;;;;;;22.03;14.63;;;6.70;99.90;;;;;;5047570;28;20240;-73
2022/04/27 02:40:56;;;;;;;25.90;14.47;;;6.60;99.90;;;;;;5043214;28;20259;-75
2022/04/27 02:43:27;;;;;;;25.60;15.40;;;6.50;99.90;;;;;;5044200;28;20197;-73
2022/04/27 02:45:55;;;;;;;21.57;13.60;;;6.50;99.90;;;;;;5043503;28;20204;-74
2022/04/27 02:48:25;;;;;;;21.73;14.93;;;6.50;99.90;;;;;;5048068;28;20197;-74
2022/04/27 02:53:39;;;;;;;28.43;16.23;;;6.40;99.90;;;;;;5045478;28;20201;-74
2022/04/27 02:56:08;;;;;;;25.87;15.60;;;6.30;99.90;;;;;;5048386;28;20212;-74
2022/04/27 02:58:36;;;;;;;30.97;15.87;;;6.30;99.90;;;;;;5048615;28;20204;-73
2022/04/27 03:01:04;;;;;;;26.80;14.73;;;6.30;99.90;;;;;;5045104;28;20203;-74
2022/04/27 03:03:34;;;;;;;25.77;15.13;;;6.20;99.90;;;;;;5044977;28;20211;-74
2022/04/27 03:06:02;;;;;;;22.17;14.70;;;6.10;99.90;;;;;;5049044;28;20228;-74
2022/04/27 03:08:31;;;;;;;24.43;15.47;;;6.10;99.90;;;;;;5048518;28;20671;-73
2022/04/27 03:11:00;;;;;;;30.13;16.43;;;6.10;99.90;;;;;;5045865;28;20205;-72
2022/04/27 03:13:29;;;;;;;28.50;16.53;;;6.10;99.90;;;;;;5044911;28;20298;-73
2022/04/27 03:15:57;;;;;;;26.50;15.70;;;6.10;99.90;;;;;;5046024;28;20201;-74
2022/04/27 03:18:26;;;;;;;30.00;16.03;;;6.10;99.90;;;;;;5047685;28;20196;-75
2022/04/27 03:20:56;;;;;;;27.30;15.80;;;6.10;99.90;;;;;;5044700;28;20200;-73
2022/04/27 03:23:24;;;;;;;25.43;16.57;;;6.00;99.90;;;;;;5049599;28;20274;-73
2022/04/27 03:25:53;;;;;;;26.03;16.17;;;5.90;99.90;;;;;;5047552;28;20362;-74
2022/04/27 03:28:21;;;;;;;28.77;17.37;;;5.90;99.90;;;;;;5044996;28;20229;-74
2022/04/27 03:30:50;;;;;;;34.87;17.50;;;5.90;99.90;;;;;;5048491;28;20204;-74
2022/04/27 03:33:18;;;;;;;28.80;17.03;;;5.80;99.90;;;;;;5048555;28;20197;-74
2022/04/27 03:35:47;;;;;;;31.93;17.73;;;5.80;99.90;;;;;;5046307;28;20229;-74
2022/04/27 03:38:18;;;;;;;26.97;17.43;;;5.80;99.90;;;;;;5049343;28;20279;-69
2022/04/27 03:40:47;;;;;;;27.20;17.23;;;5.70;99.90;;;;;;5049650;28;20196;-74
2022/04/27 03:43:16;;;;;;;31.57;17.07;;;5.70;99.90;;;;;;5042459;28;20765;-74
2022/04/27 03:45:44;;;;;;;29.17;16.97;;;5.70;99.90;;;;;;5046567;28;20193;-73
2022/04/27 03:48:13;;;;;;;31.00;17.73;;;5.70;99.90;;;;;;5045656;28;20208;-74
2022/04/27 03:50:41;;;;;;;27.33;16.43;;;5.60;99.90;;;;;;5046799;28;20570;-74
2022/04/27 03:53:10;;;;;;;31.00;17.37;;;5.60;99.90;;;;;;5046712;28;20284;-74
2022/04/27 03:55:39;;;;;;;25.30;16.67;;;5.60;99.90;;;;;;5045872;28;20409;-74
2022/04/27 03:58:08;;;;;;;28.63;17.73;;;5.50;99.90;;;;;;5047082;28;20232;-72
2022/04/27 04:00:37;;;;;;;33.43;16.90;;;5.50;99.90;;;;;;5044801;28;20207;-74
2022/04/27 04:03:14;;;;;;;25.43;16.00;;;5.40;99.90;;;;;;5044996;28;20224;-74
2022/04/27 04:05:49;;;;;;;32.57;17.77;;;5.30;99.90;;;;;;5025493;28;20246;-72
2022/04/27 04:08:17;;;;;;;28.67;17.57;;;5.30;99.90;;;;;;5038490;28;20211;-74
2022/04/27 04:10:47;;;;;;;29.07;17.30;;;5.20;99.90;;;;;;5045760;28;20277;-74
2022/04/27 04:13:15;;;;;;;27.67;17.07;;;5.20;99.90;;;;;;5045644;28;20446;-74
2022/04/27 04:15:44;;;;;;;29.27;17.60;;;5.20;99.90;;;;;;5042663;28;20196;-74
2022/04/27 04:18:12;;;;;;;30.40;17.53;;;5.10;99.90;;;;;;5048484;28;20199;-74
2022/04/27 04:20:41;;;;;;;27.50;17.30;;;5.10;99.90;;;;;;5046046;28;20227;-74
2022/04/27 04:23:09;;;;;;;32.43;18.37;;;5.00;99.90;;;;;;5045586;28;20215;-73
2022/04/27 04:28:33;;;;;;;36.47;17.23;;;5.00;99.90;;;;;;5035832;28;20197;-73
2022/04/27 04:31:02;;;;;;;29.23;17.33;;;5.00;99.90;;;;;;5046925;28;20287;-74
2022/04/27 04:33:31;;;;;;;32.97;18.07;;;4.90;99.90;;;;;;5047038;28;20189;-73
2022/04/27 04:36:00;;;;;;;33.03;16.43;;;4.80;99.90;;;;;;5042947;28;20308;-74
2022/04/27 04:38:28;;;;;;;26.83;16.67;;;4.80;99.90;;;;;;5046246;28;20727;-74
2022/04/27 04:40:56;;;;;;;31.47;18.47;;;4.80;99.90;;;;;;5048228;28;20550;-74
2022/04/27 04:43:26;;;;;;;32.80;17.60;;;4.80;99.90;;;;;;5044006;28;20551;-74
2022/04/27 04:45:55;;;;;;;31.43;19.07;;;4.80;99.90;;;;;;5040360;28;20262;-74
2022/04/27 04:48:24;;;;;;;37.00;19.80;;;4.90;99.90;;;;;;5045241;28;20606;-72
2022/04/27 04:50:52;;;;;;;38.23;19.83;;;4.90;99.90;;;;;;5039066;28;20199;-74
2022/04/27 04:53:20;;;;;;;34.67;19.73;;;5.00;99.90;;;;;;5042422;28;20220;-74
2022/04/27 04:55:49;;;;;;;36.13;19.87;;;5.10;99.90;;;;;;5041581;28;20291;-72
2022/04/27 04:58:17;;;;;;;40.33;20.40;;;5.10;99.90;;;;;;5043676;28;20711;-74
2022/04/27 05:00:48;;;;;;;40.83;21.10;;;5.10;99.90;;;;;;5045840;28;20650;-74
2022/04/27 05:03:19;;;;;;;33.60;19.57;;;5.10;99.90;;;;;;5043185;28;21045;-74
2022/04/27 05:05:48;;;;;;;38.33;20.47;;;5.10;99.90;;;;;;5040612;28;20192;-74
2022/04/27 05:08:16;;;;;;;35.63;19.33;;;5.10;99.90;;;;;;5045458;28;20284;-72
2022/04/27 05:10:45;;;;;;;35.47;20.50;;;5.30;99.90;;;;;;5046553;28;20184;-75
2022/04/27 05:13:13;;;;;;;36.00;20.87;;;5.30;99.90;;;;;;5041378;28;20797;-74
2022/04/27 05:15:41;;;;;;;41.50;21.50;;;5.30;99.90;;;;;;5040810;28;20193;-73
2022/04/27 05:18:11;;;;;;;33.70;19.67;;;5.40;99.90;;;;;;5046771;28;20193;-74
2022/04/27 05:20:40;;;;;;;34.43;20.73;;;5.50;99.90;;;;;;5040433;28;20602;-73
2022/04/27 05:23:08;;;;;;;40.70;21.60;;;5.50;99.90;;;;;;5045867;28;20686;-74
2022/04/27 05:25:37;;;;;;;41.23;22.97;;;5.60;99.90;;;;;;5044161;28;20609;-71
2022/04/27 05:28:05;;;;;;;37.70;22.43;;;5.70;99.90;;;;;;5043242;28;20192;-74
2022/04/27 05:33:22;;;;;;;38.87;21.27;;;6.00;99.90;;;;;;5040961;28;20276;-73
2022/04/27 05:35:51;;;;;;;36.57;21.03;;;6.10;99.90;;;;;;5039184;28;20215;-72
2022/04/27 05:38:20;;;;;;;33.63;19.83;;;6.30;99.90;;;;;;5043368;28;20196;-69
2022/04/27 05:40:48;;;;;;;35.40;20.20;;;6.40;99.90;;;;;;5045002;28;20571;-73
2022/04/27 05:43:17;;;;;;;35.60;19.80;;;6.60;99.90;;;;;;5040873;28;20745;-74
2022/04/27 05:45:45;;;;;;;36.40;19.33;;;6.70;99.90;;;;;;5035271;28;20554;-73
2022/04/27 05:48:14;;;;;;;35.47;19.00;;;6.90;99.90;;;;;;5039930;28;20287;-74
2022/04/27 05:50:43;;;;;;;29.33;18.60;;;7.00;99.90;;;;;;5040511;28;20747;-74
2022/04/27 05:53:16;;;;;;;31.77;18.83;;;7.20;99.90;;;;;;5046244;28;20207;-74
2022/04/27 05:55:45;;;;;;;29.03;18.07;;;7.30;99.90;;;;;;5047393;28;20284;-74
2022/04/27 05:58:13;;;;;;;27.33;18.30;;;7.50;99.90;;;;;;5038374;28;20209;-74
2022/04/27 06:00:41;;;;;;;25.63;16.53;;;7.60;99.90;;;;;;5038422;28;20227;-73
2022/04/27 06:03:10;;;;;;;26.23;17.33;;;7.80;99.90;;;;;;5042051;28;20713;-74
2022/04/27 06:05:39;;;;;;;31.20;17.57;;;7.90;99.90;;;;;;5039069;28;20204;-73
2022/04/27 06:08:09;;;;;;;24.90;16.30;;;8.10;99.90;;;;;;5043380;28;20229;-74
2022/04/27 06:10:38;;;;;;;24.90;16.03;;;8.20;99.90;;;;;;5051385;28;20740;-70
2022/04/27 06:13:06;;;;;;;30.73;16.03;;;8.40;99.90;;;;;;5051135;28;20272;-74
2022/04/27 06:15:35;;;;;;;26.10;16.67;;;8.60;99.90;;;;;;5034280;28;20203;-74
2022/04/27 06:18:03;;;;;;;21.70;15.80;;;8.80;99.90;;;;;;5045767;28;20718;-74
2022/04/27 06:20:32;;;;;;;26.40;16.63;;;9.00;99.90;;;;;;5046013;28;20200;-74
2022/04/27 06:23:00;;;;;;;25.20;14.60;;;9.30;99.90;;;;;;5050621;28;20251;-74
2022/04/27 06:25:32;;;;;;;24.00;14.77;;;9.60;99.90;;;;;;5047856;28;20206;-74
2022/04/27 06:28:00;;;;;;;21.73;14.70;;;9.90;99.90;;;;;;5049752;28;20250;-74
2022/04/27 06:30:29;;;;;;;20.90;14.07;;;10.10;99.90;;;;;;5043013;28;20241;-74
2022/04/27 06:32:57;;;;;;;23.73;14.17;;;10.40;99.90;;;;;;5047200;28;20205;-74
2022/04/27 06:35:26;;;;;;;20.87;12.70;;;10.60;99.90;;;;;;5048569;28;20287;-75
2022/04/27 06:37:54;;;;;;;21.27;12.33;;;10.50;99.90;;;;;;5048538;28;20288;-74
2022/04/27 06:40:24;;;;;;;16.30;12.00;;;10.60;99.90;;;;;;5051231;28;20208;-74
2022/04/27 06:42:56;;;;;;;18.10;11.40;;;10.70;99.90;;;;;;5047995;28;20295;-74
2022/04/27 06:45:27;;;;;;;19.07;11.23;;;10.70;99.90;;;;;;5047963;28;20197;-74
2022/04/27 06:47:56;;;;;;;20.40;11.17;;;10.80;99.90;;;;;;5047831;28;20235;-75
2022/04/27 06:50:25;;;;;;;16.40;10.63;;;10.80;99.90;;;;;;5050000;28;21860;-74
2022/04/27 06:52:55;;;;;;;14.73;9.37;;;11.00;99.90;;;;;;5048281;28;20201;-74
2022/04/27 06:55:23;;;;;;;14.20;9.63;;;11.10;99.90;;;;;;5047875;28;20498;-74
2022/04/27 06:57:53;;;;;;;13.70;9.50;;;11.30;99.90;;;;;;5042524;28;20683;-75
2022/04/27 07:00:22;;;;;;;15.77;9.80;;;11.30;99.90;;;;;;5048296;28;20197;-74
2022/04/27 07:02:51;;;;;;;16.03;9.60;;;11.50;99.90;;;;;;5045803;28;20200;-74
2022/04/27 07:05:21;;;;;;;15.73;8.87;;;11.50;99.90;;;;;;5046518;28;20224;-74
2022/04/27 07:07:49;;;;;;;13.67;8.77;;;11.70;99.90;;;;;;5048668;28;20296;-73
2022/04/27 07:10:19;;;;;;;14.27;9.67;;;11.80;99.90;;;;;;5038200;28;20202;-74
2022/04/27 07:12:48;;;;;;;17.50;9.03;;;12.00;99.90;;;;;;5051301;28;20211;-74
2022/04/27 07:15:17;;;;;;;14.10;9.27;;;12.10;99.90;;;;;;5042001;28;20204;-73
2022/04/27 07:17:46;;;;;;;14.07;8.53;;;12.10;99.90;;;;;;5038357;28;20244;-75
2022/04/27 07:20:14;;;;;;;12.00;8.10;;;12.20;99.90;;;;;;5045637;28;20209;-75
2022/04/27 07:22:42;;;;;;;14.10;8.80;;;12.40;99.90;;;;;;5045172;28;20568;-74
2022/04/27 07:25:11;;;;;;;14.20;8.40;;;12.50;99.90;;;;;;5040442;28;20241;-75
2022/04/27 07:27:39;;;;;;;15.97;8.40;;;12.60;99.90;;;;;;5039207;28;20198;-75
2022/04/27 07:30:09;;;;;;;13.07;8.67;;;12.80;99.90;;;;;;5042726;28;20387;-75
2022/04/27 07:32:39;;;;;;;12.57;7.77;;;13.10;99.90;;;;;;5045916;28;20204;-75
2022/04/27 07:35:08;;;;;;;9.60;7.70;;;13.30;99.90;;;;;;5049229;28;20667;-75
2022/04/27 07:37:38;;;;;;;12.17;7.43;;;13.30;99.90;;;;;;5041955;28;20192;-73
2022/04/27 07:40:10;;;;;;;11.23;7.70;;;13.40;99.90;;;;;;5048446;28;20201;-73
2022/04/27 07:42:40;;;;;;;9.20;6.73;;;13.60;99.90;;;;;;5044505;28;20246;-72
2022/04/27 07:45:09;;;;;;;10.33;6.53;;;13.70;99.90;;;;;;5048863;28;20221;-72
2022/04/27 07:47:44;;;;;;;12.23;7.10;;;13.90;99.90;;;;;;5047650;28;20193;-71
2022/04/27 07:50:14;;;;;;;10.97;7.10;;;14.30;99.90;;;;;;5042014;28;20291;-72
2022/04/27 07:52:43;;;;;;;11.10;6.27;;;14.50;99.90;;;;;;5042266;28;20194;-70
2022/04/27 07:55:12;;;;;;;7.13;5.97;;;14.50;99.90;;;;;;5048534;28;20279;-71
2022/04/27 07:57:41;;;;;;;9.30;6.50;;;14.70;99.90;;;;;;5045483;28;20204;-69
2022/04/27 08:00:11;;;;;;;9.07;6.17;;;14.80;99.90;;;;;;5045518;28;20206;-71
2022/04/27 08:02:41;;;;;;;14.97;6.37;;;14.80;99.90;;;;;;5036587;28;20287;-65
2022/04/27 08:05:11;;;;;;;10.50;6.00;;;15.10;99.90;;;;;;5044697;28;20637;-66
2022/04/27 08:07:43;;;;;;;10.23;6.07;;;15.20;99.90;;;;;;5048810;28;20279;-72
2022/04/27 08:10:14;;;;;;;8.20;5.80;;;15.00;99.90;;;;;;5039320;28;20677;-71
2022/04/27 08:12:46;;;;;;;6.93;6.10;;;15.20;99.90;;;;;;5043247;28;20597;-71
2022/04/27 08:15:15;;;;;;;7.67;5.20;;;15.50;99.90;;;;;;5038931;28;20276;-72
2022/04/27 08:17:56;;;;;;;7.97;5.87;;;15.60;99.90;;;;;;5049495;28;20197;-68
2022/04/27 08:23:29;;;;;;;8.53;5.30;;;15.90;99.90;;;;;;4984862;28;20268;-75
2022/04/27 08:26:00;;;;;;;6.20;5.40;;;15.90;99.90;;;;;;4981430;28;20342;-75
2022/04/27 08:28:29;;;;;;;6.03;5.00;;;16.40;99.90;;;;;;5012716;28;20238;-75
2022/04/27 08:30:58;;;;;;;10.20;5.67;;;16.70;99.90;;;;;;5042720;28;20225;-73
2022/04/27 08:33:29;;;;;;;8.70;5.03;;;17.00;99.90;;;;;;5043984;28;20196;-75
2022/04/27 08:35:59;;;;;;;7.63;5.20;;;17.50;99.90;;;;;;5038325;28;20194;-74
2022/04/27 08:38:47;;;;;;;5.17;4.50;;;17.40;99.90;;;;;;5044328;28;20296;-75
2022/04/27 08:41:16;;;;;;;6.63;4.23;;;17.10;99.90;;;;;;5043474;28;20330;-75
2022/04/27 08:43:44;;;;;;;6.70;4.50;;;16.90;99.90;;;;;;5047370;28;20205;-70
2022/04/27 08:46:15;;;;;;;7.17;4.73;;;17.40;99.90;;;;;;5040344;28;20222;-70
2022/04/27 08:48:48;;;;;;;5.07;4.50;;;17.40;99.90;;;;;;5043302;28;20195;-72
2022/04/27 08:51:16;;;;;;;9.67;4.90;;;17.50;99.90;;;;;;5047050;28;20205;-72
2022/04/27 08:53:46;;;;;;;6.17;4.00;;;17.80;99.90;;;;;;5041928;28;20193;-72
2022/04/27 08:56:16;;;;;;;4.07;3.63;;;18.10;99.90;;;;;;5041595;28;20201;-73
2022/04/27 08:58:45;;;;;;;4.53;3.60;;;18.40;99.90;;;;;;5041430;28;20195;-67
2022/04/27 09:01:15;;;;;;;4.30;3.83;;;18.60;99.90;;;;;;5045463;28;20196;-73
2022/04/27 09:03:44;;;;;;;9.37;3.80;;;18.60;99.90;;;;;;5043898;28;20214;-74
2022/04/27 09:06:17;;;;;;;4.27;3.53;;;18.80;99.90;;;;;;5026181;28;20220;-74
2022/04/27 09:08:48;;;;;;;5.23;3.90;;;19.10;99.90;;;;;;5047520;28;20232;-74
2022/04/27 09:11:20;;;;;;;4.77;3.60;;;19.30;99.90;;;;;;5040880;28;20781;-73
2022/04/27 09:13:50;;;;;;;4.33;3.67;;;19.70;99.90;;;;;;5043588;28;20429;-73
2022/04/27 09:16:21;;;;;;;4.03;3.60;;;19.70;99.90;;;;;;5043978;28;20558;-73
2022/04/27 09:21:59;;;;;;;4.07;3.63;;;20.00;99.90;;;;;;5044512;28;20225;-73
2022/04/27 09:24:30;;;;;;;4.00;3.70;;;20.50;99.90;;;;;;5045737;28;20208;-72
2022/04/27 09:27:02;;;;;;;6.40;3.60;;;20.70;99.90;;;;;;5034830;28;20197;-73
2022/04/27 09:29:30;;;;;;;4.30;3.90;;;20.50;99.90;;;;;;5042930;28;20197;-72
2022/04/27 09:32:00;;;;;;;3.50;3.20;;;20.60;98.80;;;;;;5045318;28;20208;-72
2022/04/27 09:34:28;;;;;;;4.83;3.63;;;20.60;99.60;;;;;;5045128;28;20286;-71
2022/04/27 09:37:02;;;;;;;4.03;3.60;;;21.00;99.90;;;;;;5038953;28;20207;-73
2022/04/27 09:39:31;;;;;;;3.83;3.53;;;21.40;99.90;;;;;;5042925;28;20189;-72
2022/04/27 09:42:05;;;;;;;4.87;3.60;;;21.50;99.90;;;;;;5039163;28;20664;-72
2022/04/27 09:44:34;;;;;;;4.72;3.78;;;21.90;98.20;;;;;;5043515;28;20250;-73
2022/04/27 09:47:04;;;;;;;3.78;3.47;;;21.80;98.10;;;;;;5046215;28;20297;-72
2022/04/27 09:49:32;;;;;;;9.55;3.88;;;22.00;97.30;;;;;;5043963;28;20205;-73
2022/04/27 09:52:05;;;;;;;6.07;3.83;;;21.80;98.50;;;;;;5041557;28;20232;-72
2022/04/27 09:54:36;;;;;;;6.53;3.90;;;21.80;98.20;;;;;;5041462;28;20186;-72
2022/04/27 09:57:08;;;;;;;11.45;4.50;;;22.10;97.30;;;;;;5040847;28;20230;-71
2022/04/27 09:59:37;;;;;;;4.87;3.80;;;22.00;97.30;;;;;;5043116;28;20211;-72
2022/04/27 10:02:09;;;;;;;5.07;4.25;;;22.10;97.50;;;;;;5039837;28;20266;-72
2022/04/27 10:05:16;;;;;;;4.90;3.50;;;22.20;96.80;;;;;;5043485;28;20585;-72
2022/04/27 10:08:06;;;;;;;5.00;3.85;;;22.40;97.10;;;;;;5033436;28;20230;-72
2022/04/27 10:10:35;;;;;;;3.63;3.35;;;22.60;98.00;;;;;;5040490;28;20714;-72
2022/04/27 10:13:03;;;;;;;3.80;3.60;;;22.20;96.40;;;;;;5043698;28;20428;-72
2022/04/27 10:15:32;;;;;;;4.17;3.87;;;21.90;96.90;;;;;;5039134;28;20281;-72
2022/04/27 10:18:01;;;;;;;4.90;4.43;;;21.60;96.40;;;;;;5038564;28;20200;-71
2022/04/27 10:20:33;;;;;;;6.57;4.33;;;21.20;96.70;;;;;;5040329;28;20196;-72
2022/04/27 10:23:21;;;;;;;5.83;4.40;;;21.40;97.00;;;;;;5046354;28;20566;-72
2022/04/27 10:26:10;;;;;;;5.00;4.50;;;21.50;97.80;;;;;;5032937;28;20236;-71
2022/04/27 10:28:43;;;;;;;4.13;3.83;;;21.50;96.70;;;;;;5035959;28;20285;-72
2022/04/27 10:31:11;;;;;;;5.00;4.57;;;21.70;97.40;;;;;;5034664;28;20208;-71
2022/04/27 10:33:41;;;;;;;6.93;4.57;;;22.20;96.00;;;;;;5041442;28;20189;-71
2022/04/27 10:36:37;;;;;;;6.03;4.70;;;22.10;92.80;;;;;;5038382;28;20198;-71
2022/04/27 10:39:27;;;;;;;5.67;5.00;;;22.40;93.80;;;;;;5041756;28;20186;-70
2022/04/27 10:42:18;;;;;;;5.87;4.40;;;22.30;93.30;;;;;;5044091;28;20926;-71
2022/04/27 10:45:05;;;;;;;6.83;4.93;;;22.30;94.20;;;;;;5041337;28;20207;-71
2022/04/27 10:47:38;;;;;;;8.03;4.83;;;22.10;93.10;;;;;;5050612;28;20276;-70
2022/04/27 10:50:30;;;;;;;9.03;5.27;;;22.20;95.70;;;;;;5034201;28;20233;-71
2022/04/27 10:53:15;;;;;;;5.67;4.93;;;22.40;95.10;;;;;;5042805;28;20311;-71
2022/04/27 10:55:58;;;;;;;5.32;4.78;;;22.60;95.20;;;;;;5036795;28;20217;-71
2022/04/27 10:58:34;;;;;;;6.67;4.93;;;22.90;95.50;;;;;;5053867;28;20197;-71
2022/04/27 11:01:31;;;;;;;5.30;4.90;;;21.90;94.10;;;;;;5045356;28;20200;-70
2022/04/27 11:04:06;;;;;;;7.97;4.90;;;20.60;93.30;;;;;;5043335;28;20189;-71
2022/04/27 11:07:18;;;;;;;6.23;5.30;;;21.10;97.50;;;;;;5044826;28;20218;-70
2022/04/27 11:10:15;;;;;;;8.50;5.10;;;21.80;98.10;;;;;;5042009;28;20232;-70
2022/04/27 11:12:49;;;;;;;8.73;5.77;;;21.60;99.60;;;;;;5043193;28;20200;-70
2022/04/27 11:15:21;;;;;;;6.07;5.40;;;21.70;99.20;;;;;;5040760;28;20218;-70
2022/04/27 11:17:56;;;;;;;6.50;6.00;;;22.10;96.50;;;;;;5044716;28;20265;-71
2022/04/27 11:20:26;;;;;;;7.03;5.57;;;22.00;96.00;;;;;;5045004;28;20204;-70
2022/04/27 11:22:56;;;;;;;6.17;5.57;;;21.20;94.30;;;;;;5042077;28;20206;-71
2022/04/27 11:25:26;;;;;;;11.30;5.87;;;21.40;93.50;;;;;;5045923;28;20728;-70
2022/04/27 11:27:56;;;;;;;7.13;5.87;;;21.50;93.30;;;;;;5043973;28;20300;-71
2022/04/27 11:30:27;;;;;;;9.70;6.17;;;21.90;95.10;;;;;;5048361;28;20204;-71
2022/04/27 11:32:55;;;;;;;9.87;6.00;;;22.10;93.50;;;;;;5047660;28;20288;-71
2022/04/27 11:35:25;;;;;;;7.20;6.50;;;21.70;95.60;;;;;;5046485;28;20239;-71
2022/04/27 11:37:54;;;;;;;7.37;6.20;;;21.40;93.60;;;;;;5046893;28;20257;-70
2022/04/27 11:40:27;;;;;;;7.13;6.30;;;21.60;94.70;;;;;;5042618;28;20666;-71
2022/04/27 11:43:00;;;;;;;9.13;6.60;;;22.00;95.90;;;;;;5043676;28;20215;-71
2022/04/27 11:45:29;;;;;;;7.53;6.33;;;22.50;94.70;;;;;;5049275;28;20294;-73
2022/04/27 11:47:59;;;;;;;6.93;6.30;;;22.30;93.30;;;;;;5048565;28;20219;-72
2022/04/27 11:50:28;;;;;;;10.53;6.60;;;21.80;92.90;;;;;;5045946;28;20209;-72
2022/04/27 11:53:00;;;;;;;7.33;6.43;;;21.20;94.70;;;;;;5042867;28;20212;-71
2022/04/27 11:55:29;;;;;;;8.97;6.33;;;21.00;95.60;;;;;;5045750;28;20199;-72
2022/04/27 11:57:59;;;;;;;7.37;6.67;;;21.20;95.90;;;;;;5044039;28;20567;-72
2022/04/27 12:00:29;;;;;;;7.63;6.53;;;21.30;93.40;;;;;;5045677;28;20276;-71
2022/04/27 12:03:04;;;;;;;8.77;6.67;;;21.30;94.70;;;;;;5043177;28;20292;-72
2022/04/27 12:05:34;;;;;;;10.57;6.90;;;21.40;94.90;;;;;;5041220;28;20198;-72
2022/04/27 12:08:07;;;;;;;9.50;7.00;;;21.00;93.30;;;;;;5044491;28;20224;-72
2022/04/27 12:10:40;;;;;;;7.90;7.13;;;20.60;93.90;;;;;;5047676;28;20217;-71
2022/04/27 12:13:10;;;;;;;9.00;6.67;;;20.50;95.50;;;;;;5043259;28;20200;-71
2022/04/27 12:15:41;;;;;;;10.80;7.13;;;20.50;95.20;;;;;;5044398;28;20193;-71
2022/04/27 12:18:14;;;;;;;12.93;7.83;;;20.70;96.10;;;;;;5047250;28;20196;-72
2022/04/27 12:20:44;;;;;;;7.83;6.93;;;20.50;94.40;;;;;;5044585;28;20372;-72
2022/04/27 12:23:15;;;;;;;8.00;7.17;;;20.40;95.80;;;;;;5045549;28;20287;-71
2022/04/27 12:25:45;;;;;;;9.00;7.33;;;20.30;95.10;;;;;;5041423;28;20191;-71
2022/04/27 12:28:17;;;;;;;8.67;7.43;;;20.40;96.50;;;;;;5039738;28;20223;-71
2022/04/27 12:30:51;;;;;;;10.80;7.53;;;20.40;96.20;;;;;;5045566;28;20227;-71
2022/04/27 12:33:22;;;;;;;8.93;7.70;;;20.70;96.60;;;;;;5045022;28;20250;-71
2022/04/27 12:38:58;;;;;;;8.27;7.23;;;19.70;95.00;;;;;;5042743;28;20778;-70
2022/04/27 12:41:30;;;;;;;9.03;7.23;;;19.50;96.00;;;;;;5044817;28;20217;-71
2022/04/27 12:44:07;;;;;;;11.63;8.43;;;19.60;94.50;;;;;;5043449;28;20280;-71
2022/04/27 12:46:57;;;;;;;16.37;8.13;;;19.80;99.10;;;;;;5038749;28;20216;-71
2022/04/27 12:49:26;;;;;;;11.00;8.00;;;20.00;96.50;;;;;;5044356;28;20188;-71
2022/04/27 12:51:55;;;;;;;10.13;8.27;;;20.30;96.30;;;;;;5035211;28;20667;-71
2022/04/27 12:54:34;;;;;;;9.67;7.70;;;20.10;96.30;;;;;;5039718;28;20490;-71
2022/04/27 12:57:03;;;;;;;9.83;8.63;;;19.90;94.80;;;;;;5044212;28;20287;-71
2022/04/27 12:59:33;;;;;;;10.20;9.03;;;19.90;95.00;;;;;;5033364;28;20219;-71
2022/04/27 13:02:04;;;;;;;12.17;8.10;;;20.00;97.00;;;;;;5037746;28;20262;-72
2022/04/27 13:04:32;;;;;;;8.80;7.93;;;20.20;96.30;;;;;;5038733;28;20205;-71
2022/04/27 13:07:02;;;;;;;11.93;8.73;;;20.20;96.60;;;;;;5035794;28;20213;-72
2022/04/27 13:12:17;;;;;;;9.00;8.17;;;19.90;96.40;;;;;;5038645;28;20196;-71
2022/04/27 13:14:46;;;;;;;9.00;8.10;;;20.10;98.30;;;;;;5041597;28;20220;-71
2022/04/27 13:17:14;;;;;;;12.53;8.80;;;20.50;94.60;;;;;;5043402;28;20228;-71
2022/04/27 13:19:43;;;;;;;10.13;9.07;;;20.30;94.00;;;;;;5043352;28;20564;-71
2022/04/27 13:22:11;;;;;;;12.83;8.70;;;20.60;96.90;;;;;;5043833;28;20288;-71